Spofford, New Hampshire
Current Conditions -  °F | °C
As of 7:35 AM on Sunday 25 Jan 2015 (Local Time) from KEEN Reporting Station
Overcast Overcast  
Wind Chill: 28°   Ceiling: 6000
Heat Index: 34°   Visibility: 10mi
Dew Point: 25°   Wind: 7mph
Humidity: 70%   Direction: 240°WSW
Pressure: 29.47"   Gusts: NA
Location:  42.91°N, 72.42°W
Report Text: KEEN 251235Z AUTO 24006KT 10SM FEW044 OVC060 01/M04 A2947 RMK AO1
Loading
Personal Weather Stations






























Interactive Weather Map New forecast layout! Learn more

10-Day Weather Forecast

Advertisements
Track Severe Weather on mobile